sensor_id;sensor_type;location;lat;lon;timestamp;P1;durP1;ratioP1;P2;durP2;ratioP2
31308;SDS011;17936;52.446;10.840;2023-02-28T00:01:22;21.83;;;5.97;;
31308;SDS011;17936;52.446;10.840;2023-02-28T00:03:48;16.00;;;7.10;;
31308;SDS011;17936;52.446;10.840;2023-02-28T00:06:14;12.13;;;6.68;;
31308;SDS011;17936;52.446;10.840;2023-02-28T00:08:40;11.88;;;5.78;;
31308;SDS011;17936;52.446;10.840;2023-02-28T00:11:07;12.90;;;5.78;;
31308;SDS011;17936;52.446;10.840;2023-02-28T00:13:35;10.50;;;5.40;;
31308;SDS011;17936;52.446;10.840;2023-02-28T00:16:03;10.85;;;5.53;;
31308;SDS011;17936;52.446;10.840;2023-02-28T00:18:33;15.32;;;6.13;;
31308;SDS011;17936;52.446;10.840;2023-02-28T00:20:58;12.80;;;6.80;;
31308;SDS011;17936;52.446;10.840;2023-02-28T00:23:24;15.10;;;6.57;;
31308;SDS011;17936;52.446;10.840;2023-02-28T00:25:50;18.02;;;6.75;;
31308;SDS011;17936;52.446;10.840;2023-02-28T00:28:17;12.27;;;5.50;;
31308;SDS011;17936;52.446;10.840;2023-02-28T00:30:42;10.25;;;5.95;;
31308;SDS011;17936;52.446;10.840;2023-02-28T00:33:08;13.32;;;6.20;;
31308;SDS011;17936;52.446;10.840;2023-02-28T00:35:33;22.52;;;6.85;;
31308;SDS011;17936;52.446;10.840;2023-02-28T00:37:59;12.95;;;6.43;;
31308;SDS011;17936;52.446;10.840;2023-02-28T00:40:24;16.13;;;6.53;;
31308;SDS011;17936;52.446;10.840;2023-02-28T00:42:50;19.40;;;7.22;;
31308;SDS011;17936;52.446;10.840;2023-02-28T00:45:16;23.83;;;7.40;;
31308;SDS011;17936;52.446;10.840;2023-02-28T00:47:41;21.23;;;8.10;;
31308;SDS011;17936;52.446;10.840;2023-02-28T00:50:07;17.27;;;7.43;;
31308;SDS011;17936;52.446;10.840;2023-02-28T00:52:33;15.95;;;7.90;;
31308;SDS011;17936;52.446;10.840;2023-02-28T00:54:59;14.95;;;7.15;;
31308;SDS011;17936;52.446;10.840;2023-02-28T00:57:25;14.25;;;6.43;;
31308;SDS011;17936;52.446;10.840;2023-02-28T00:59:51;19.75;;;7.50;;
31308;SDS011;17936;52.446;10.840;2023-02-28T01:02:19;13.68;;;7.45;;
31308;SDS011;17936;52.446;10.840;2023-02-28T01:04:45;16.45;;;8.15;;
31308;SDS011;17936;52.446;10.840;2023-02-28T01:07:11;15.13;;;7.68;;
31308;SDS011;17936;52.446;10.840;2023-02-28T01:09:37;13.90;;;7.22;;
31308;SDS011;17936;52.446;10.840;2023-02-28T01:12:02;21.52;;;8.30;;
31308;SDS011;17936;52.446;10.840;2023-02-28T01:14:28;19.40;;;9.30;;
31308;SDS011;17936;52.446;10.840;2023-02-28T01:16:54;20.10;;;8.45;;
31308;SDS011;17936;52.446;10.840;2023-02-28T01:19:19;20.38;;;8.75;;
31308;SDS011;17936;52.446;10.840;2023-02-28T01:21:45;16.80;;;7.95;;
31308;SDS011;17936;52.446;10.840;2023-02-28T01:24:10;15.82;;;7.90;;
31308;SDS011;17936;52.446;10.840;2023-02-28T01:26:36;17.38;;;8.30;;
31308;SDS011;17936;52.446;10.840;2023-02-28T01:29:02;16.33;;;8.13;;
31308;SDS011;17936;52.446;10.840;2023-02-28T01:31:28;17.00;;;7.55;;
31308;SDS011;17936;52.446;10.840;2023-02-28T01:33:53;17.77;;;7.93;;
31308;SDS011;17936;52.446;10.840;2023-02-28T01:36:22;15.75;;;7.88;;
31308;SDS011;17936;52.446;10.840;2023-02-28T01:38:49;15.13;;;7.60;;
31308;SDS011;17936;52.446;10.840;2023-02-28T01:41:20;17.02;;;7.32;;
31308;SDS011;17936;52.446;10.840;2023-02-28T01:46:23;11.95;;;6.07;;
31308;SDS011;17936;52.446;10.840;2023-02-28T01:51:41;13.23;;;6.07;;
31308;SDS011;17936;52.446;10.840;2023-02-28T01:54:20;13.63;;;6.35;;
31308;SDS011;17936;52.446;10.840;2023-02-28T01:56:51;12.50;;;5.82;;
31308;SDS011;17936;52.446;10.840;2023-02-28T02:01:49;14.23;;;5.72;;
31308;SDS011;17936;52.446;10.840;2023-02-28T02:04:15;13.27;;;6.55;;
31308;SDS011;17936;52.446;10.840;2023-02-28T02:06:42;16.48;;;7.25;;
31308;SDS011;17936;52.446;10.840;2023-02-28T02:09:10;15.68;;;7.22;;
31308;SDS011;17936;52.446;10.840;2023-02-28T02:11:36;13.93;;;6.28;;
31308;SDS011;17936;52.446;10.840;2023-02-28T02:19:32;13.10;;;4.40;;
31308;SDS011;17936;52.446;10.840;2023-02-28T02:22:21;7.63;;;4.53;;
31308;SDS011;17936;52.446;10.840;2023-02-28T02:46:47;9.95;;;5.20;;
31308;SDS011;17936;52.446;10.840;2023-02-28T02:49:15;14.23;;;4.75;;
31308;SDS011;17936;52.446;10.840;2023-02-28T02:51:51;9.07;;;4.25;;
31308;SDS011;17936;52.446;10.840;2023-02-28T02:54:26;9.75;;;4.93;;
31308;SDS011;17936;52.446;10.840;2023-02-28T02:56:53;10.95;;;4.50;;
31308;SDS011;17936;52.446;10.840;2023-02-28T02:59:23;10.45;;;5.45;;
31308;SDS011;17936;52.446;10.840;2023-02-28T03:01:55;13.52;;;5.28;;
31308;SDS011;17936;52.446;10.840;2023-02-28T03:04:28;11.65;;;5.38;;
31308;SDS011;17936;52.446;10.840;2023-02-28T03:06:57;12.93;;;5.25;;
31308;SDS011;17936;52.446;10.840;2023-02-28T03:09:22;11.15;;;4.93;;
31308;SDS011;17936;52.446;10.840;2023-02-28T03:11:49;9.15;;;4.70;;
31308;SDS011;17936;52.446;10.840;2023-02-28T03:14:23;8.80;;;4.07;;
31308;SDS011;17936;52.446;10.840;2023-02-28T03:22:33;8.50;;;4.30;;
31308;SDS011;17936;52.446;10.840;2023-02-28T03:25:27;8.25;;;4.20;;
31308;SDS011;17936;52.446;10.840;2023-02-28T03:28:17;7.28;;;4.20;;
31308;SDS011;17936;52.446;10.840;2023-02-28T03:30:53;8.13;;;4.15;;
31308;SDS011;17936;52.446;10.840;2023-02-28T03:33:58;7.65;;;3.78;;
31308;SDS011;17936;52.446;10.840;2023-02-28T03:36:29;6.40;;;3.72;;
31308;SDS011;17936;52.446;10.840;2023-02-28T03:39:08;11.35;;;4.72;;
31308;SDS011;17936;52.446;10.840;2023-02-28T03:41:52;9.68;;;4.22;;
31308;SDS011;17936;52.446;10.840;2023-02-28T03:44:28;8.30;;;3.92;;
31308;SDS011;17936;52.446;10.840;2023-02-28T03:47:10;10.20;;;3.80;;
31308;SDS011;17936;52.446;10.840;2023-02-28T03:49:54;10.70;;;4.82;;
31308;SDS011;17936;52.446;10.840;2023-02-28T03:52:28;8.48;;;3.95;;
31308;SDS011;17936;52.446;10.840;2023-02-28T03:54:59;8.60;;;4.78;;
31308;SDS011;17936;52.446;10.840;2023-02-28T03:57:48;11.68;;;5.65;;
31308;SDS011;17936;52.446;10.840;2023-02-28T04:00:20;10.55;;;4.82;;
31308;SDS011;17936;52.446;10.840;2023-02-28T04:02:53;9.48;;;4.47;;
31308;SDS011;17936;52.446;10.840;2023-02-28T04:05:20;8.73;;;3.85;;
31308;SDS011;17936;52.446;10.840;2023-02-28T04:07:46;8.30;;;4.00;;
31308;SDS011;17936;52.446;10.840;2023-02-28T04:10:11;10.52;;;3.97;;
31308;SDS011;17936;52.446;10.840;2023-02-28T04:12:38;11.30;;;4.32;;
31308;SDS011;17936;52.446;10.840;2023-02-28T04:15:04;7.65;;;4.00;;
31308;SDS011;17936;52.446;10.840;2023-02-28T04:17:30;7.88;;;3.85;;
31308;SDS011;17936;52.446;10.840;2023-02-28T04:19:55;8.93;;;4.13;;
31308;SDS011;17936;52.446;10.840;2023-02-28T04:22:22;8.25;;;4.13;;
31308;SDS011;17936;52.446;10.840;2023-02-28T04:24:50;7.88;;;3.97;;
31308;SDS011;17936;52.446;10.840;2023-02-28T04:27:16;9.75;;;4.38;;
31308;SDS011;17936;52.446;10.840;2023-02-28T04:29:41;7.57;;;3.90;;
31308;SDS011;17936;52.446;10.840;2023-02-28T04:32:09;9.98;;;3.65;;
31308;SDS011;17936;52.446;10.840;2023-02-28T04:34:35;8.35;;;4.28;;
31308;SDS011;17936;52.446;10.840;2023-02-28T04:37:01;6.95;;;3.65;;
31308;SDS011;17936;52.446;10.840;2023-02-28T04:39:28;7.38;;;3.47;;
31308;SDS011;17936;52.446;10.840;2023-02-28T04:41:54;8.02;;;3.92;;
31308;SDS011;17936;52.446;10.840;2023-02-28T04:44:20;6.97;;;3.53;;
31308;SDS011;17936;52.446;10.840;2023-02-28T04:46:47;7.15;;;3.58;;
31308;SDS011;17936;52.446;10.840;2023-02-28T04:49:13;5.95;;;3.08;;
31308;SDS011;17936;52.446;10.840;2023-02-28T04:51:39;5.78;;;3.30;;
31308;SDS011;17936;52.446;10.840;2023-02-28T04:54:05;8.18;;;3.80;;
31308;SDS011;17936;52.446;10.840;2023-02-28T04:56:31;7.00;;;2.97;;
31308;SDS011;17936;52.446;10.840;2023-02-28T04:58:57;7.32;;;3.45;;
31308;SDS011;17936;52.446;10.840;2023-02-28T05:01:30;6.45;;;3.53;;
31308;SDS011;17936;52.446;10.840;2023-02-28T05:03:58;7.28;;;3.25;;
31308;SDS011;17936;52.446;10.840;2023-02-28T05:06:25;8.05;;;4.07;;
31308;SDS011;17936;52.446;10.840;2023-02-28T05:08:52;7.38;;;3.83;;
31308;SDS011;17936;52.446;10.840;2023-02-28T05:11:22;8.68;;;4.05;;
31308;SDS011;17936;52.446;10.840;2023-02-28T05:13:54;9.85;;;3.95;;
31308;SDS011;17936;52.446;10.840;2023-02-28T05:16:20;7.28;;;3.70;;
31308;SDS011;17936;52.446;10.840;2023-02-28T05:18:46;10.18;;;3.55;;
31308;SDS011;17936;52.446;10.840;2023-02-28T05:21:21;6.47;;;3.53;;
31308;SDS011;17936;52.446;10.840;2023-02-28T05:23:56;7.20;;;3.20;;
31308;SDS011;17936;52.446;10.840;2023-02-28T05:26:26;6.75;;;3.25;;
31308;SDS011;17936;52.446;10.840;2023-02-28T05:28:52;6.18;;;3.22;;
31308;SDS011;17936;52.446;10.840;2023-02-28T05:31:18;6.50;;;3.85;;
31308;SDS011;17936;52.446;10.840;2023-02-28T05:33:44;7.15;;;3.40;;
31308;SDS011;17936;52.446;10.840;2023-02-28T05:36:09;10.48;;;3.80;;
31308;SDS011;17936;52.446;10.840;2023-02-28T05:38:35;6.45;;;4.00;;
31308;SDS011;17936;52.446;10.840;2023-02-28T05:41:04;7.65;;;3.80;;
31308;SDS011;17936;52.446;10.840;2023-02-28T05:43:34;7.93;;;3.63;;
31308;SDS011;17936;52.446;10.840;2023-02-28T05:46:01;6.13;;;3.42;;
31308;SDS011;17936;52.446;10.840;2023-02-28T05:48:34;9.65;;;4.13;;
31308;SDS011;17936;52.446;10.840;2023-02-28T05:51:01;7.88;;;3.83;;
31308;SDS011;17936;52.446;10.840;2023-02-28T05:53:28;8.30;;;3.95;;
31308;SDS011;17936;52.446;10.840;2023-02-28T05:55:54;7.18;;;3.58;;
31308;SDS011;17936;52.446;10.840;2023-02-28T05:58:19;7.82;;;4.32;;
31308;SDS011;17936;52.446;10.840;2023-02-28T06:00:45;7.93;;;3.75;;
31308;SDS011;17936;52.446;10.840;2023-02-28T06:03:11;9.18;;;4.20;;
31308;SDS011;17936;52.446;10.840;2023-02-28T06:05:36;11.77;;;4.25;;
31308;SDS011;17936;52.446;10.840;2023-02-28T06:08:03;8.15;;;4.15;;
31308;SDS011;17936;52.446;10.840;2023-02-28T06:10:31;7.57;;;3.90;;
31308;SDS011;17936;52.446;10.840;2023-02-28T06:12:59;9.43;;;4.25;;
31308;SDS011;17936;52.446;10.840;2023-02-28T06:15:27;7.88;;;3.97;;
31308;SDS011;17936;52.446;10.840;2023-02-28T06:17:53;9.57;;;4.70;;
31308;SDS011;17936;52.446;10.840;2023-02-28T06:20:18;10.45;;;4.25;;
31308;SDS011;17936;52.446;10.840;2023-02-28T06:22:44;11.00;;;4.72;;
31308;SDS011;17936;52.446;10.840;2023-02-28T06:25:09;9.82;;;4.43;;
31308;SDS011;17936;52.446;10.840;2023-02-28T06:27:35;9.07;;;4.40;;
31308;SDS011;17936;52.446;10.840;2023-02-28T06:30:01;7.50;;;4.47;;
31308;SDS011;17936;52.446;10.840;2023-02-28T06:32:27;6.70;;;3.63;;
31308;SDS011;17936;52.446;10.840;2023-02-28T06:34:52;7.32;;;3.85;;
31308;SDS011;17936;52.446;10.840;2023-02-28T06:37:18;11.60;;;4.43;;
31308;SDS011;17936;52.446;10.840;2023-02-28T06:39:44;12.57;;;6.05;;
31308;SDS011;17936;52.446;10.840;2023-02-28T06:42:09;15.35;;;6.72;;
31308;SDS011;17936;52.446;10.840;2023-02-28T06:44:35;11.35;;;6.00;;
31308;SDS011;17936;52.446;10.840;2023-02-28T06:47:02;10.65;;;5.82;;
31308;SDS011;17936;52.446;10.840;2023-02-28T06:49:29;10.52;;;4.68;;
31308;SDS011;17936;52.446;10.840;2023-02-28T06:51:59;8.73;;;5.47;;
31308;SDS011;17936;52.446;10.840;2023-02-28T06:54:24;12.35;;;6.25;;
31308;SDS011;17936;52.446;10.840;2023-02-28T06:56:50;10.15;;;5.88;;
31308;SDS011;17936;52.446;10.840;2023-02-28T06:59:16;13.85;;;5.95;;
31308;SDS011;17936;52.446;10.840;2023-02-28T07:01:41;12.13;;;5.38;;
31308;SDS011;17936;52.446;10.840;2023-02-28T07:04:07;9.70;;;5.43;;
31308;SDS011;17936;52.446;10.840;2023-02-28T07:06:33;11.25;;;4.82;;
31308;SDS011;17936;52.446;10.840;2023-02-28T07:08:59;11.50;;;5.00;;
31308;SDS011;17936;52.446;10.840;2023-02-28T07:11:25;10.45;;;5.03;;
31308;SDS011;17936;52.446;10.840;2023-02-28T07:13:55;14.13;;;5.63;;
31308;SDS011;17936;52.446;10.840;2023-02-28T07:16:21;9.90;;;4.70;;
31308;SDS011;17936;52.446;10.840;2023-02-28T07:18:51;10.23;;;4.68;;
31308;SDS011;17936;52.446;10.840;2023-02-28T07:21:17;7.43;;;3.95;;
31308;SDS011;17936;52.446;10.840;2023-02-28T07:23:43;7.85;;;3.92;;
31308;SDS011;17936;52.446;10.840;2023-02-28T07:26:11;7.05;;;3.45;;
31308;SDS011;17936;52.446;10.840;2023-02-28T07:28:39;6.10;;;3.20;;
31308;SDS011;17936;52.446;10.840;2023-02-28T07:31:07;4.72;;;2.75;;
31308;SDS011;17936;52.446;10.840;2023-02-28T07:33:33;5.72;;;2.90;;
31308;SDS011;17936;52.446;10.840;2023-02-28T07:36:06;5.20;;;2.83;;
31308;SDS011;17936;52.446;10.840;2023-02-28T07:38:34;9.32;;;2.90;;
31308;SDS011;17936;52.446;10.840;2023-02-28T07:41:01;7.15;;;3.00;;
31308;SDS011;17936;52.446;10.840;2023-02-28T07:43:29;4.32;;;2.55;;
31308;SDS011;17936;52.446;10.840;2023-02-28T07:45:55;6.68;;;3.10;;
31308;SDS011;17936;52.446;10.840;2023-02-28T07:48:20;6.22;;;2.63;;
31308;SDS011;17936;52.446;10.840;2023-02-28T07:50:53;7.35;;;2.90;;
31308;SDS011;17936;52.446;10.840;2023-02-28T07:53:20;5.82;;;2.63;;
31308;SDS011;17936;52.446;10.840;2023-02-28T07:55:45;4.60;;;2.65;;
31308;SDS011;17936;52.446;10.840;2023-02-28T07:58:11;5.88;;;2.65;;
31308;SDS011;17936;52.446;10.840;2023-02-28T08:00:36;4.68;;;2.35;;
31308;SDS011;17936;52.446;10.840;2023-02-28T08:03:02;6.43;;;2.58;;
31308;SDS011;17936;52.446;10.840;2023-02-28T08:05:28;5.50;;;2.58;;
31308;SDS011;17936;52.446;10.840;2023-02-28T08:07:55;3.95;;;2.22;;
31308;SDS011;17936;52.446;10.840;2023-02-28T08:10:20;5.50;;;2.50;;
31308;SDS011;17936;52.446;10.840;2023-02-28T08:12:46;3.15;;;2.20;;
31308;SDS011;17936;52.446;10.840;2023-02-28T08:15:11;6.63;;;2.22;;
31308;SDS011;17936;52.446;10.840;2023-02-28T08:17:37;6.80;;;2.47;;
31308;SDS011;17936;52.446;10.840;2023-02-28T08:20:03;7.57;;;2.58;;
31308;SDS011;17936;52.446;10.840;2023-02-28T08:22:29;6.93;;;2.58;;
31308;SDS011;17936;52.446;10.840;2023-02-28T08:24:54;6.68;;;2.40;;
31308;SDS011;17936;52.446;10.840;2023-02-28T08:27:20;6.80;;;2.28;;
31308;SDS011;17936;52.446;10.840;2023-02-28T08:29:46;4.10;;;2.20;;
31308;SDS011;17936;52.446;10.840;2023-02-28T08:32:11;5.30;;;2.28;;
31308;SDS011;17936;52.446;10.840;2023-02-28T08:34:38;5.82;;;2.28;;
31308;SDS011;17936;52.446;10.840;2023-02-28T08:37:05;5.95;;;2.60;;
31308;SDS011;17936;52.446;10.840;2023-02-28T08:39:33;6.35;;;2.50;;
31308;SDS011;17936;52.446;10.840;2023-02-28T08:41:59;10.45;;;2.65;;
31308;SDS011;17936;52.446;10.840;2023-02-28T08:44:25;5.57;;;2.72;;
31308;SDS011;17936;52.446;10.840;2023-02-28T08:46:52;9.05;;;3.03;;
31308;SDS011;17936;52.446;10.840;2023-02-28T08:49:17;6.88;;;3.33;;
31308;SDS011;17936;52.446;10.840;2023-02-28T08:51:43;8.27;;;2.90;;
31308;SDS011;17936;52.446;10.840;2023-02-28T08:54:09;6.40;;;3.42;;
31308;SDS011;17936;52.446;10.840;2023-02-28T08:56:37;6.80;;;3.00;;
31308;SDS011;17936;52.446;10.840;2023-02-28T08:59:03;7.97;;;3.10;;
31308;SDS011;17936;52.446;10.840;2023-02-28T09:01:29;6.57;;;3.15;;
31308;SDS011;17936;52.446;10.840;2023-02-28T09:03:56;7.40;;;3.78;;
31308;SDS011;17936;52.446;10.840;2023-02-28T09:06:22;6.70;;;3.15;;
31308;SDS011;17936;52.446;10.840;2023-02-28T09:08:50;6.50;;;3.50;;
31308;SDS011;17936;52.446;10.840;2023-02-28T09:11:16;8.45;;;3.72;;
31308;SDS011;17936;52.446;10.840;2023-02-28T09:13:43;12.40;;;3.80;;
31308;SDS011;17936;52.446;10.840;2023-02-28T09:16:10;6.03;;;2.95;;
31308;SDS011;17936;52.446;10.840;2023-02-28T09:18:37;9.80;;;3.60;;
31308;SDS011;17936;52.446;10.840;2023-02-28T09:21:07;9.45;;;3.80;;
31308;SDS011;17936;52.446;10.840;2023-02-28T09:23:33;8.82;;;3.85;;
31308;SDS011;17936;52.446;10.840;2023-02-28T09:26:00;9.60;;;3.85;;
31308;SDS011;17936;52.446;10.840;2023-02-28T09:28:25;9.50;;;3.70;;
31308;SDS011;17936;52.446;10.840;2023-02-28T09:30:52;8.68;;;3.70;;
31308;SDS011;17936;52.446;10.840;2023-02-28T09:33:19;10.32;;;3.83;;
31308;SDS011;17936;52.446;10.840;2023-02-28T09:35:46;12.10;;;4.22;;
31308;SDS011;17936;52.446;10.840;2023-02-28T09:38:12;10.13;;;4.32;;
31308;SDS011;17936;52.446;10.840;2023-02-28T09:43:18;7.80;;;4.22;;
31308;SDS011;17936;52.446;10.840;2023-02-28T09:45:52;11.82;;;3.83;;
31308;SDS011;17936;52.446;10.840;2023-02-28T09:48:27;9.02;;;4.15;;
31308;SDS011;17936;52.446;10.840;2023-02-28T09:51:03;13.00;;;4.43;;
31308;SDS011;17936;52.446;10.840;2023-02-28T09:53:37;11.32;;;4.15;;
31308;SDS011;17936;52.446;10.840;2023-02-28T09:56:07;9.32;;;3.50;;
31308;SDS011;17936;52.446;10.840;2023-02-28T09:58:48;8.27;;;3.78;;
31308;SDS011;17936;52.446;10.840;2023-02-28T10:01:20;8.88;;;3.92;;
31308;SDS011;17936;52.446;10.840;2023-02-28T10:03:55;9.40;;;3.72;;
31308;SDS011;17936;52.446;10.840;2023-02-28T10:06:24;7.45;;;3.97;;
31308;SDS011;17936;52.446;10.840;2023-02-28T10:09:03;7.38;;;3.50;;
31308;SDS011;17936;52.446;10.840;2023-02-28T10:11:34;13.02;;;3.47;;
31308;SDS011;17936;52.446;10.840;2023-02-28T10:14:03;8.90;;;3.63;;
31308;SDS011;17936;52.446;10.840;2023-02-28T10:16:41;7.50;;;3.55;;
31308;SDS011;17936;52.446;10.840;2023-02-28T10:21:55;5.63;;;3.40;;
31308;SDS011;17936;52.446;10.840;2023-02-28T10:27:12;6.68;;;2.92;;
31308;SDS011;17936;52.446;10.840;2023-02-28T10:29:48;5.93;;;3.17;;
31308;SDS011;17936;52.446;10.840;2023-02-28T10:32:20;6.25;;;3.13;;
31308;SDS011;17936;52.446;10.840;2023-02-28T10:34:59;6.35;;;3.40;;
31308;SDS011;17936;52.446;10.840;2023-02-28T10:37:34;5.50;;;3.28;;
31308;SDS011;17936;52.446;10.840;2023-02-28T10:40:04;5.65;;;3.10;;
31308;SDS011;17936;52.446;10.840;2023-02-28T10:42:30;6.82;;;3.03;;
31308;SDS011;17936;52.446;10.840;2023-02-28T10:47:31;4.90;;;2.90;;
31308;SDS011;17936;52.446;10.840;2023-02-28T10:49:59;7.75;;;2.75;;
31308;SDS011;17936;52.446;10.840;2023-02-28T10:52:36;4.50;;;2.58;;
31308;SDS011;17936;52.446;10.840;2023-02-28T10:55:14;6.72;;;2.50;;
31308;SDS011;17936;52.446;10.840;2023-02-28T10:57:48;4.93;;;2.75;;
31308;SDS011;17936;52.446;10.840;2023-02-28T11:00:16;6.18;;;2.70;;
31308;SDS011;17936;52.446;10.840;2023-02-28T11:02:42;3.72;;;2.13;;
31308;SDS011;17936;52.446;10.840;2023-02-28T11:05:42;4.72;;;2.35;;
31308;SDS011;17936;52.446;10.840;2023-02-28T11:08:12;5.10;;;2.60;;
31308;SDS011;17936;52.446;10.840;2023-02-28T11:10:43;5.22;;;1.70;;
31308;SDS011;17936;52.446;10.840;2023-02-28T11:13:18;3.13;;;1.83;;
31308;SDS011;17936;52.446;10.840;2023-02-28T11:15:51;3.85;;;1.60;;
31308;SDS011;17936;52.446;10.840;2023-02-28T11:18:21;6.45;;;1.33;;
31308;SDS011;17936;52.446;10.840;2023-02-28T11:20:54;3.80;;;1.88;;
31308;SDS011;17936;52.446;10.840;2023-02-28T11:23:23;3.88;;;1.85;;
31308;SDS011;17936;52.446;10.840;2023-02-28T11:25:52;8.50;;;2.83;;
31308;SDS011;17936;52.446;10.840;2023-02-28T11:33:29;3.80;;;1.73;;
31308;SDS011;17936;52.446;10.840;2023-02-28T11:36:23;4.95;;;1.67;;
31308;SDS011;17936;52.446;10.840;2023-02-28T11:38:58;4.90;;;1.70;;
31308;SDS011;17936;52.446;10.840;2023-02-28T11:44:05;5.70;;;1.80;;
31308;SDS011;17936;52.446;10.840;2023-02-28T11:46:36;5.97;;;1.98;;
31308;SDS011;17936;52.446;10.840;2023-02-28T11:55:02;3.25;;;1.77;;
31308;SDS011;17936;52.446;10.840;2023-02-28T12:17:43;8.75;;;3.03;;
31308;SDS011;17936;52.446;10.840;2023-02-28T12:20:31;5.32;;;2.35;;
31308;SDS011;17936;52.446;10.840;2023-02-28T12:28:48;4.05;;;2.30;;
31308;SDS011;17936;52.446;10.840;2023-02-28T12:31:29;3.20;;;1.80;;
31308;SDS011;17936;52.446;10.840;2023-02-28T12:34:02;5.88;;;2.35;;
31308;SDS011;17936;52.446;10.840;2023-02-28T12:36:30;4.72;;;1.80;;
31308;SDS011;17936;52.446;10.840;2023-02-28T12:39:00;5.47;;;2.08;;
31308;SDS011;17936;52.446;10.840;2023-02-28T12:41:37;3.95;;;1.77;;
31308;SDS011;17936;52.446;10.840;2023-02-28T12:44:15;5.43;;;2.05;;
31308;SDS011;17936;52.446;10.840;2023-02-28T12:46:51;3.72;;;1.95;;
31308;SDS011;17936;52.446;10.840;2023-02-28T12:49:27;4.07;;;2.20;;
31308;SDS011;17936;52.446;10.840;2023-02-28T12:52:13;5.03;;;2.05;;
31308;SDS011;17936;52.446;10.840;2023-02-28T12:54:44;4.80;;;2.13;;
31308;SDS011;17936;52.446;10.840;2023-02-28T12:57:41;6.53;;;1.95;;
31308;SDS011;17936;52.446;10.840;2023-02-28T13:00:14;4.60;;;2.40;;
31308;SDS011;17936;52.446;10.840;2023-02-28T13:10:39;4.50;;;2.10;;
31308;SDS011;17936;52.446;10.840;2023-02-28T13:13:18;6.47;;;2.10;;
31308;SDS011;17936;52.446;10.840;2023-02-28T13:18:33;4.07;;;2.10;;
31308;SDS011;17936;52.446;10.840;2023-02-28T13:21:05;5.05;;;2.20;;
31308;SDS011;17936;52.446;10.840;2023-02-28T13:23:40;5.80;;;2.47;;
31308;SDS011;17936;52.446;10.840;2023-02-28T13:31:25;6.28;;;2.17;;
31308;SDS011;17936;52.446;10.840;2023-02-28T13:36:23;6.55;;;2.50;;
31308;SDS011;17936;52.446;10.840;2023-02-28T13:38:52;3.42;;;2.20;;
31308;SDS011;17936;52.446;10.840;2023-02-28T13:44:02;3.27;;;2.10;;
31308;SDS011;17936;52.446;10.840;2023-02-28T13:54:51;5.88;;;2.00;;
31308;SDS011;17936;52.446;10.840;2023-02-28T13:57:41;4.00;;;1.90;;
31308;SDS011;17936;52.446;10.840;2023-02-28T14:03:05;5.05;;;2.28;;
31308;SDS011;17936;52.446;10.840;2023-02-28T14:05:48;5.60;;;2.45;;
31308;SDS011;17936;52.446;10.840;2023-02-28T14:09:03;8.50;;;2.22;;
31308;SDS011;17936;52.446;10.840;2023-02-28T14:11:34;4.80;;;2.03;;
31308;SDS011;17936;52.446;10.840;2023-02-28T14:14:01;4.90;;;2.33;;
31308;SDS011;17936;52.446;10.840;2023-02-28T14:16:45;5.10;;;2.00;;
31308;SDS011;17936;52.446;10.840;2023-02-28T14:19:13;5.20;;;2.05;;
31308;SDS011;17936;52.446;10.840;2023-02-28T14:21:53;4.30;;;1.70;;
31308;SDS011;17936;52.446;10.840;2023-02-28T14:27:37;4.13;;;2.10;;
31308;SDS011;17936;52.446;10.840;2023-02-28T14:30:26;3.63;;;1.83;;
31308;SDS011;17936;52.446;10.840;2023-02-28T14:33:18;7.78;;;1.65;;
31308;SDS011;17936;52.446;10.840;2023-02-28T14:35:51;5.60;;;2.22;;
31308;SDS011;17936;52.446;10.840;2023-02-28T14:41:14;4.43;;;1.65;;
31308;SDS011;17936;52.446;10.840;2023-02-28T14:43:48;2.85;;;1.60;;
31308;SDS011;17936;52.446;10.840;2023-02-28T14:46:19;3.05;;;1.60;;
31308;SDS011;17936;52.446;10.840;2023-02-28T14:48:46;5.13;;;1.98;;
31308;SDS011;17936;52.446;10.840;2023-02-28T14:51:13;3.53;;;1.80;;
31308;SDS011;17936;52.446;10.840;2023-02-28T14:53:44;3.72;;;1.65;;
31308;SDS011;17936;52.446;10.840;2023-02-28T14:56:22;3.22;;;1.63;;
31308;SDS011;17936;52.446;10.840;2023-02-28T14:59:02;3.80;;;1.40;;
31308;SDS011;17936;52.446;10.840;2023-02-28T15:01:28;4.07;;;2.08;;
31308;SDS011;17936;52.446;10.840;2023-02-28T15:04:15;2.55;;;1.48;;
31308;SDS011;17936;52.446;10.840;2023-02-28T15:07:07;5.07;;;1.90;;
31308;SDS011;17936;52.446;10.840;2023-02-28T15:09:37;3.70;;;1.60;;
31308;SDS011;17936;52.446;10.840;2023-02-28T15:12:03;4.03;;;1.40;;
31308;SDS011;17936;52.446;10.840;2023-02-28T15:14:29;3.95;;;1.60;;
31308;SDS011;17936;52.446;10.840;2023-02-28T15:16:56;2.25;;;1.30;;
31308;SDS011;17936;52.446;10.840;2023-02-28T15:19:26;2.45;;;1.35;;
31308;SDS011;17936;52.446;10.840;2023-02-28T15:22:00;4.05;;;1.55;;
31308;SDS011;17936;52.446;10.840;2023-02-28T15:24:35;3.15;;;1.65;;
31308;SDS011;17936;52.446;10.840;2023-02-28T15:27:09;5.25;;;1.80;;
31308;SDS011;17936;52.446;10.840;2023-02-28T15:29:44;4.78;;;1.90;;
31308;SDS011;17936;52.446;10.840;2023-02-28T15:32:33;4.63;;;1.92;;
31308;SDS011;17936;52.446;10.840;2023-02-28T15:37:52;3.70;;;1.83;;
31308;SDS011;17936;52.446;10.840;2023-02-28T15:40:37;1.90;;;1.17;;
31308;SDS011;17936;52.446;10.840;2023-02-28T15:45:45;3.60;;;1.70;;
31308;SDS011;17936;52.446;10.840;2023-02-28T15:48:17;3.67;;;1.80;;
31308;SDS011;17936;52.446;10.840;2023-02-28T15:50:50;4.10;;;1.58;;
31308;SDS011;17936;52.446;10.840;2023-02-28T15:53:25;3.92;;;1.38;;
31308;SDS011;17936;52.446;10.840;2023-02-28T15:55:59;4.22;;;1.55;;
31308;SDS011;17936;52.446;10.840;2023-02-28T15:58:30;3.42;;;1.70;;
31308;SDS011;17936;52.446;10.840;2023-02-28T16:01:01;4.18;;;1.73;;
31308;SDS011;17936;52.446;10.840;2023-02-28T16:03:55;4.30;;;2.08;;
31308;SDS011;17936;52.446;10.840;2023-02-28T16:06:26;3.08;;;1.88;;
31308;SDS011;17936;52.446;10.840;2023-02-28T16:09:03;4.57;;;2.50;;
31308;SDS011;17936;52.446;10.840;2023-02-28T16:11:32;3.75;;;1.95;;
31308;SDS011;17936;52.446;10.840;2023-02-28T16:14:00;8.50;;;2.33;;
31308;SDS011;17936;52.446;10.840;2023-02-28T16:16:25;3.95;;;2.15;;
31308;SDS011;17936;52.446;10.840;2023-02-28T16:18:51;7.10;;;2.88;;
31308;SDS011;17936;52.446;10.840;2023-02-28T16:21:17;4.18;;;2.10;;
31308;SDS011;17936;52.446;10.840;2023-02-28T16:23:43;4.55;;;2.13;;
31308;SDS011;17936;52.446;10.840;2023-02-28T16:26:10;5.18;;;2.22;;
31308;SDS011;17936;52.446;10.840;2023-02-28T16:28:44;6.03;;;2.30;;
31308;SDS011;17936;52.446;10.840;2023-02-28T16:31:10;6.00;;;2.63;;
31308;SDS011;17936;52.446;10.840;2023-02-28T16:33:41;4.70;;;2.53;;
31308;SDS011;17936;52.446;10.840;2023-02-28T16:36:09;5.53;;;2.92;;
31308;SDS011;17936;52.446;10.840;2023-02-28T16:38:45;5.45;;;3.10;;
31308;SDS011;17936;52.446;10.840;2023-02-28T16:41:17;6.35;;;2.40;;
31308;SDS011;17936;52.446;10.840;2023-02-28T16:43:46;4.18;;;2.80;;
31308;SDS011;17936;52.446;10.840;2023-02-28T16:46:13;5.85;;;2.72;;
31308;SDS011;17936;52.446;10.840;2023-02-28T16:48:39;6.15;;;2.72;;
31308;SDS011;17936;52.446;10.840;2023-02-28T16:51:06;7.30;;;2.72;;
31308;SDS011;17936;52.446;10.840;2023-02-28T16:53:36;7.68;;;2.92;;
31308;SDS011;17936;52.446;10.840;2023-02-28T16:56:01;7.13;;;3.15;;
31308;SDS011;17936;52.446;10.840;2023-02-28T16:58:27;10.20;;;3.35;;
31308;SDS011;17936;52.446;10.840;2023-02-28T17:00:53;7.90;;;3.72;;
31308;SDS011;17936;52.446;10.840;2023-02-28T17:03:26;6.43;;;3.25;;